CDT,Max TemperatureF,Mean TemperatureF,Min TemperatureF,Max Dew PointF,MeanDew PointF,Min DewpointF,Max Humidity, Mean Humidity, Min Humidity, Max Sea Level PressureIn, Mean Sea Level PressureIn, Min Sea Level PressureIn, Max VisibilityMiles, Mean VisibilityMiles, Min VisibilityMiles, Max Wind SpeedMPH, Mean Wind SpeedMPH, Max Gust SpeedMPH,PrecipitationIn, CloudCover, Events, WindDirDegrees
2014-3-1,13,8,3,7,-3,-8,76,58,43,30.37,30.23,30.03,10,10,7,13,6,16,0.00,5,,326
2014-3-2,10,0,-13,-8,-17,-21,68,44,26,30.45,30.39,30.31,10,10,10,10,6,16,0.00,1,,302
2014-3-3,13,-4,-22,7,-11,-28,87,60,44,30.48,30.41,30.29,10,9,1,13,3,16,0.00,2,,237
2014-3-4,18,8,-2,8,5,-6,88,78,57,30.34,30.24,30.18,10,7,1,7,3,,0.00,6,,236
2014-3-5,13,1,-11,5,-4,-17,92,69,41,30.56,30.49,30.34,10,10,10,10,4,16,0.00,1,,54
2014-3-6,23,3,-17,14,0,-22,88,74,55,30.49,30.27,29.99,10,10,7,13,3,17,0.00,0,,168
2014-3-7,32,23,14,26,20,11,88,75,61,30.06,29.91,29.82,10,9,7,15,5,22,0.00,5,,272
2014-3-8,27,16,6,18,11,3,87,68,47,30.25,30.19,30.07,10,10,10,10,7,21,0.00,3,,1
2014-3-9,37,20,4,28,16,2,89,68,48,30.15,29.87,29.64,10,10,10,18,7,25,0.00,1,,229
2014-3-10,56,40,23,34,29,22,98,69,39,29.65,29.55,29.44,10,10,4,15,4,21,0.00,1,,257
2014-3-11,43,36,29,32,28,22,83,68,55,29.89,29.73,29.59,10,10,10,12,6,17,0.00,4,,21
2014-3-12,28,15,2,22,4,-4,81,61,35,30.13,30.03,29.87,10,10,10,20,10,25,0.00,3,,40
2014-3-13,34,15,-4,29,10,-8,88,72,53,30.11,29.90,29.62,10,10,10,16,3,21,0.00,3,,205
2014-3-14,44,38,33,33,31,26,87,74,64,29.73,29.50,29.40,10,10,10,16,8,25,0.00,4,,262
2014-3-15,32,22,10,26,12,0,72,62,44,30.47,30.12,29.75,10,10,10,14,9,21,0.00,5,,23
2014-3-16,16,8,1,5,-1,-7,87,65,40,30.52,30.42,30.18,10,10,10,12,5,17,0.00,0,,46
2014-3-17,27,16,4,19,11,1,89,74,54,30.17,29.94,29.80,10,10,7,16,4,21,0.00,7,,150
2014-3-18,34,26,18,28,24,17,93,81,71,29.92,29.87,29.83,10,10,7,14,5,16,0.00,4,,98
2014-3-19,35,32,30,32,29,24,98,88,74,29.84,29.71,29.63,10,6,1,12,7,17,0.07,8,,354
2014-3-20,36,30,23,24,22,19,89,69,49,30.01,29.95,29.84,10,10,10,10,5,9,0.00,5,,284
2014-3-21,36,24,13,29,23,11,98,84,65,30.01,29.89,29.76,10,8,0,13,3,18,0.00,4,,123
2014-3-22,33,24,14,29,14,3,93,62,39,30.38,30.13,29.84,10,10,10,15,6,24,0.00,5,,325
2014-3-23,25,16,7,6,3,1,79,58,38,30.43,30.37,30.31,10,10,10,10,6,17,0.00,2,,288
2014-3-24,30,16,2,21,8,-1,90,64,36,30.33,30.17,29.97,10,10,3,17,6,32,0.00,3,,270
2014-3-25,22,14,7,18,4,-2,87,59,37,30.18,30.06,29.94,10,10,10,16,7,20,0.00,5,,306
2014-3-26,29,16,3,27,8,0,94,66,47,30.24,30.15,29.94,10,10,1,14,4,20,0.00,3,,215
2014-3-27,37,32,28,33,31,27,100,91,82,29.93,29.66,29.47,10,5,0,14,7,20,0.26,8,,155
2014-3-28,38,34,29,32,26,23,99,76,54,30.23,29.92,29.48,10,10,5,16,9,25,0.00,5,,359
2014-3-29,35,28,21,25,18,11,88,62,38,30.31,30.27,30.21,10,10,10,8,4,,0.00,3,,72
2014-3-30,45,30,15,32,24,14,94,75,51,30.25,30.11,29.99,10,10,10,13,3,21,0.00,0,,159
2014-3-31,47,38,28,34,32,28,96,72,54,30.02,29.87,29.61,10,9,5,17,5,28,0.00,5,,146